createdAt,value
2022-11-17T00:02:22.643Z,5.88
2022-11-17T00:05:26.859Z,5.88
2022-11-17T00:08:33.372Z,5.81
2022-11-17T00:11:55.997Z,5.74
2022-11-17T00:15:00.207Z,5.72
2022-11-17T00:18:22.760Z,5.58
2022-11-17T00:21:28.758Z,5.68
2022-11-17T00:24:32.560Z,5.66
2022-11-17T00:27:36.462Z,5.65
2022-11-17T00:30:59.403Z,5.72
2022-11-17T00:34:06.421Z,5.68
2022-11-17T00:37:11.699Z,5.62
2022-11-17T00:40:18.627Z,5.62
2022-11-17T00:43:22.836Z,5.52
2022-11-17T00:46:26.889Z,5.57
2022-11-17T00:49:30.803Z,5.56
2022-11-17T00:52:34.922Z,5.56
2022-11-17T00:55:39.132Z,5.56
2022-11-17T00:58:43.892Z,5.53
2022-11-17T01:01:48.104Z,5.54
2022-11-17T01:04:52.325Z,5.44
2022-11-17T01:07:56.399Z,5.41
2022-11-17T01:11:10.071Z,5.52
2022-11-17T01:14:17.090Z,5.53
2022-11-17T01:17:20.912Z,5.46
2022-11-17T01:20:25.158Z,5.44
2022-11-17T01:23:29.358Z,5.44
2022-11-17T01:26:35.747Z,5.50
2022-11-17T01:29:40.095Z,5.38
2022-11-17T01:32:44.055Z,5.41
2022-11-17T01:35:47.970Z,5.45
2022-11-17T01:38:52.192Z,5.38
2022-11-17T01:41:57.210Z,5.46
2022-11-17T01:45:17.340Z,5.34
2022-11-17T01:48:21.362Z,5.30
2022-11-17T01:51:26.861Z,5.33
2022-11-17T01:54:34.034Z,5.28
2022-11-17T01:57:53.581Z,5.38
2022-11-17T02:00:58.213Z,5.33
2022-11-17T02:04:02.298Z,5.29
2022-11-17T02:07:24.533Z,5.33
2022-11-17T02:10:30.652Z,5.32
2022-11-17T02:13:35.976Z,5.35
2022-11-17T02:16:40.196Z,5.47
2022-11-17T02:19:46.314Z,5.39
2022-11-17T02:23:11.519Z,5.40
2022-11-17T02:26:49.155Z,5.40
2022-11-17T02:29:59.082Z,5.35
2022-11-17T02:33:23.428Z,5.35
2022-11-17T02:36:42.747Z,5.40
2022-11-17T02:40:02.931Z,5.33
2022-11-17T02:43:32.121Z,5.39
2022-11-17T02:46:39.003Z,5.26
2022-11-17T02:49:57.208Z,5.27
2022-11-17T02:53:02.042Z,5.30
2022-11-17T02:56:07.317Z,5.38
2022-11-17T02:59:14.900Z,5.35
2022-11-17T03:02:32.392Z,5.30
2022-11-17T03:06:07.723Z,5.34
2022-11-17T03:09:43.844Z,5.31
2022-11-17T03:12:55.664Z,5.24
2022-11-17T03:16:07.969Z,5.29
2022-11-17T03:19:24.929Z,5.22
2022-11-17T03:22:41.631Z,5.23
2022-11-17T03:25:51.799Z,5.22
2022-11-17T03:28:58.599Z,5.19
2022-11-17T03:32:06.264Z,5.17
2022-11-17T03:35:18.697Z,5.19
2022-11-17T03:38:26.567Z,5.14
2022-11-17T03:41:33.800Z,5.19
2022-11-17T03:44:41.205Z,5.20
2022-11-17T03:47:46.401Z,5.16
2022-11-17T03:51:18.832Z,5.13
2022-11-17T03:54:23.179Z,5.11
2022-11-17T03:57:36.405Z,5.19
2022-11-17T04:00:41.897Z,5.08
2022-11-17T04:03:45.949Z,5.00
2022-11-17T04:06:52.925Z,5.12
2022-11-17T04:09:57.294Z,5.13
2022-11-17T04:13:20.112Z,5.18
2022-11-17T04:16:24.379Z,5.21
2022-11-17T04:19:28.378Z,5.09
2022-11-17T04:22:32.374Z,5.07
2022-11-17T04:25:59.524Z,5.07
2022-11-17T04:29:03.904Z,5.09
2022-11-17T04:32:07.791Z,5.10
2022-11-17T04:35:12.128Z,5.18
2022-11-17T04:38:16.311Z,5.11
2022-11-17T04:41:41.189Z,5.10
2022-11-17T04:44:45.526Z,5.01
2022-11-17T04:47:49.280Z,5.04
2022-11-17T04:50:54.323Z,4.96
2022-11-17T04:53:58.861Z,4.93
2022-11-17T04:57:02.680Z,4.84
2022-11-17T05:00:07.485Z,4.88
2022-11-17T05:03:11.260Z,4.89
2022-11-17T05:06:21.133Z,4.99
2022-11-17T05:09:24.929Z,4.97
2022-11-17T05:12:47.291Z,4.91
2022-11-17T05:16:15.185Z,4.96
2022-11-17T05:19:22.092Z,4.90
2022-11-17T05:22:45.089Z,4.87
2022-11-17T05:25:53.523Z,4.86
2022-11-17T05:28:59.892Z,4.91
2022-11-17T05:32:03.759Z,4.91
2022-11-17T05:35:08.351Z,4.82
2022-11-17T05:38:12.325Z,4.90
2022-11-17T05:41:17.537Z,4.95
2022-11-17T05:44:21.470Z,4.84
2022-11-17T05:47:25.171Z,4.80
2022-11-17T05:50:29.090Z,4.93
2022-11-17T05:53:33.618Z,4.84
2022-11-17T05:56:56.610Z,4.81
2022-11-17T06:00:04.337Z,4.73
2022-11-17T06:03:16.351Z,4.78
2022-11-17T06:06:21.371Z,4.74
2022-11-17T06:09:32.669Z,4.72
2022-11-17T06:12:36.854Z,4.65
2022-11-17T06:15:40.851Z,4.69
2022-11-17T06:18:50.254Z,4.69
2022-11-17T06:22:11.757Z,4.62
2022-11-17T06:25:19.139Z,4.70
2022-11-17T06:28:23.565Z,4.62
2022-11-17T06:31:28.142Z,4.68
2022-11-17T06:34:34.213Z,4.73
2022-11-17T06:37:38.325Z,4.72
2022-11-17T06:40:42.693Z,4.76
2022-11-17T06:43:46.884Z,4.66
2022-11-17T06:46:50.793Z,4.64
2022-11-17T06:49:55.018Z,4.64
2022-11-17T06:53:02.884Z,4.67
2022-11-17T06:56:07.210Z,4.70
2022-11-17T06:59:11.050Z,4.73
2022-11-17T07:02:14.970Z,4.81
2022-11-17T07:05:19.087Z,4.72
2022-11-17T07:08:23.043Z,4.80
2022-11-17T07:11:27.391Z,4.80
2022-11-17T07:14:31.786Z,4.86
2022-11-17T07:17:35.738Z,4.90
2022-11-17T07:20:39.356Z,4.91
2022-11-17T07:23:44.891Z,4.88
2022-11-17T07:26:48.929Z,4.98
2022-11-17T07:29:52.735Z,4.92
2022-11-17T07:33:00.009Z,5.03
2022-11-17T07:36:06.029Z,5.23
2022-11-17T07:39:10.099Z,5.16
2022-11-17T07:42:14.069Z,5.15
2022-11-17T07:45:18.256Z,5.10
2022-11-17T07:48:22.625Z,5.07
2022-11-17T07:51:26.541Z,5.17
2022-11-17T07:54:32.818Z,5.15
2022-11-17T07:57:37.022Z,5.28
2022-11-17T08:00:41.727Z,5.33
2022-11-17T08:03:46.013Z,5.27
2022-11-17T08:06:50.106Z,5.34
2022-11-17T08:09:54.185Z,5.44
2022-11-17T08:13:02.449Z,5.44
2022-11-17T08:16:07.592Z,5.37
2022-11-17T08:19:11.965Z,5.38
2022-11-17T08:22:16.056Z,5.43
2022-11-17T08:25:21.169Z,5.46
2022-11-17T08:28:25.272Z,5.34
2022-11-17T08:31:29.138Z,5.35
2022-11-17T08:34:33.296Z,5.42
2022-11-17T08:37:40.902Z,5.36
2022-11-17T08:40:45.926Z,5.38
2022-11-17T08:43:51.249Z,5.37
2022-11-17T08:46:55.160Z,5.25
2022-11-17T08:49:59.324Z,5.28
2022-11-17T08:53:03.385Z,5.34
2022-11-17T08:56:08.999Z,5.39
2022-11-17T08:59:13.399Z,5.29
2022-11-17T09:02:17.838Z,5.31
2022-11-17T09:05:21.938Z,5.34
2022-11-17T09:11:50.413Z,5.45
2022-11-17T09:14:54.246Z,5.53
2022-11-17T09:17:58.601Z,5.63
2022-11-17T09:21:05.970Z,5.60
2022-11-17T09:24:10.866Z,5.59
2022-11-17T09:27:14.952Z,5.59
2022-11-17T09:30:22.046Z,5.66
2022-11-17T09:33:26.171Z,5.54
2022-11-17T09:36:30.153Z,5.65
2022-11-17T09:39:34.422Z,5.69
2022-11-17T09:42:40.140Z,5.68
2022-11-17T09:45:46.600Z,5.72
2022-11-17T09:49:05.308Z,5.55
2022-11-17T09:52:22.893Z,5.57
2022-11-17T09:55:58.160Z,5.56
2022-11-17T09:59:04.633Z,5.62
2022-11-17T10:02:10.903Z,5.70
2022-11-17T10:05:32.648Z,5.64
2022-11-17T10:08:58.455Z,5.55
2022-11-17T10:12:25.344Z,5.61
2022-11-17T10:15:36.596Z,5.67
2022-11-17T10:18:40.990Z,5.64
2022-11-17T10:21:46.899Z,5.70
2022-11-17T10:24:55.445Z,5.62
2022-11-17T10:27:59.704Z,5.64
2022-11-17T10:31:10.715Z,5.73
2022-11-17T10:34:40.106Z,5.80
2022-11-17T10:38:12.850Z,5.89
2022-11-17T10:41:20.023Z,5.87
2022-11-17T10:44:27.372Z,5.87
2022-11-17T10:47:39.793Z,5.76
2022-11-17T10:50:56.025Z,5.80
2022-11-17T10:54:21.429Z,5.84
2022-11-17T10:57:26.650Z,5.92
2022-11-17T11:00:33.736Z,5.96
2022-11-17T11:03:48.462Z,5.84
2022-11-17T11:07:19.356Z,5.81
2022-11-17T11:10:29.973Z,5.79
2022-11-17T11:13:44.153Z,5.82
2022-11-17T11:16:50.483Z,5.82
2022-11-17T11:19:55.233Z,5.78
2022-11-17T11:23:09.059Z,5.74
2022-11-17T11:26:59.676Z,5.68
2022-11-17T11:30:11.786Z,5.71
2022-11-17T11:33:36.915Z,5.71
2022-11-17T11:37:12.749Z,5.71
2022-11-17T11:40:29.077Z,5.78
2022-11-17T11:43:39.348Z,5.78
2022-11-17T11:46:49.390Z,5.82
2022-11-17T11:50:02.436Z,5.88
2022-11-17T11:53:06.622Z,5.79
2022-11-17T11:56:16.036Z,5.92
2022-11-17T11:59:27.819Z,6.00
2022-11-17T12:02:54.113Z,6.07
2022-11-17T12:06:27.402Z,6.05
2022-11-17T12:09:46.244Z,6.10
2022-11-17T12:12:50.883Z,6.21
2022-11-17T12:16:17.944Z,6.28
2022-11-17T12:19:59.544Z,6.19
2022-11-17T12:23:34.438Z,6.19
2022-11-17T12:26:38.546Z,6.26
2022-11-17T12:29:47.123Z,6.30
2022-11-17T12:32:52.989Z,6.29
2022-11-17T12:36:30.951Z,6.23
2022-11-17T12:39:59.165Z,6.33
2022-11-17T12:43:30.487Z,6.42
2022-11-17T12:46:34.573Z,6.39
2022-11-17T12:50:20.134Z,6.52
2022-11-17T12:53:50.785Z,6.39
2022-11-17T12:57:10.797Z,6.51
2022-11-17T13:00:20.081Z,6.42
2022-11-17T13:03:42.500Z,6.40
2022-11-17T13:07:03.316Z,6.51
2022-11-17T13:10:24.164Z,6.38
2022-11-17T13:13:28.562Z,6.43
2022-11-17T13:16:32.704Z,6.41
2022-11-17T13:19:39.225Z,6.48
2022-11-17T13:22:43.159Z,6.48
2022-11-17T13:25:48.012Z,6.51
2022-11-17T13:29:12.508Z,6.56
2022-11-17T13:32:28.455Z,6.49
2022-11-17T13:35:35.174Z,6.46
2022-11-17T13:38:47.083Z,6.56
2022-11-17T13:41:51.430Z,6.58
2022-11-17T13:44:58.773Z,6.52
2022-11-17T13:48:03.185Z,6.60
2022-11-17T13:51:28.760Z,6.62
2022-11-17T13:54:33.442Z,6.51
2022-11-17T13:57:37.650Z,6.57
2022-11-17T14:00:50.812Z,6.65
2022-11-17T14:04:19.391Z,6.61
2022-11-17T14:07:30.861Z,6.51
2022-11-17T14:10:38.457Z,6.41
2022-11-17T14:13:48.247Z,6.43
2022-11-17T14:16:52.069Z,6.44
2022-11-17T14:20:24.709Z,6.46
2022-11-17T14:23:28.635Z,6.58
2022-11-17T14:26:33.353Z,6.39
2022-11-17T14:29:37.512Z,6.39
2022-11-17T14:32:41.810Z,6.47
2022-11-17T14:35:50.466Z,6.45
2022-11-17T14:38:54.390Z,6.40
2022-11-17T14:41:58.340Z,6.39
2022-11-17T14:45:02.724Z,6.37
2022-11-17T14:48:07.126Z,6.36
2022-11-17T14:51:11.278Z,6.37
2022-11-17T14:54:15.498Z,6.37
2022-11-17T14:57:19.470Z,6.36
2022-11-17T15:00:23.997Z,6.41
2022-11-17T15:03:28.356Z,6.38
2022-11-17T15:06:32.880Z,6.37
2022-11-17T15:09:36.783Z,6.40
2022-11-17T15:12:40.911Z,6.35
2022-11-17T15:15:45.025Z,6.43
2022-11-17T15:18:48.928Z,6.42
2022-11-17T15:21:53.118Z,6.45
2022-11-17T15:24:57.276Z,6.44
2022-11-17T15:28:01.091Z,6.45
2022-11-17T15:31:09.546Z,6.55
2022-11-17T15:34:19.890Z,6.48
2022-11-17T15:37:24.988Z,6.52
2022-11-17T15:40:29.211Z,6.45
2022-11-17T15:43:36.102Z,6.47
2022-11-17T15:46:45.824Z,6.48
2022-11-17T15:49:58.269Z,6.38
2022-11-17T15:53:04.398Z,6.47
2022-11-17T15:56:11.554Z,6.43
2022-11-17T15:59:16.018Z,6.43
2022-11-17T16:02:20.165Z,6.56
2022-11-17T16:05:24.297Z,6.62
2022-11-17T16:08:28.403Z,6.56
2022-11-17T16:11:32.973Z,6.62
2022-11-17T16:14:37.039Z,6.62
2022-11-17T16:17:41.236Z,6.68
2022-11-17T16:20:45.267Z,6.64
2022-11-17T16:23:51.434Z,6.71
2022-11-17T16:26:55.439Z,6.66
2022-11-17T16:29:59.532Z,6.61
2022-11-17T16:33:08.806Z,6.51
2022-11-17T16:36:13.021Z,6.47
2022-11-17T16:39:17.585Z,6.47
2022-11-17T16:42:21.848Z,6.61
2022-11-17T16:45:25.790Z,6.49
2022-11-17T16:48:33.333Z,6.54
2022-11-17T16:51:37.197Z,6.53
2022-11-17T16:54:41.975Z,6.56
2022-11-17T16:57:46.008Z,6.61
2022-11-17T17:00:50.261Z,6.58
2022-11-17T17:04:08.247Z,6.57
2022-11-17T17:07:12.417Z,6.62
2022-11-17T17:10:17.075Z,6.53
2022-11-17T17:13:21.364Z,6.54
2022-11-17T17:16:26.208Z,6.52
2022-11-17T17:19:30.709Z,6.52
2022-11-17T17:22:35.024Z,6.44
2022-11-17T17:25:38.962Z,6.43
2022-11-17T17:28:44.600Z,6.34
2022-11-17T17:31:48.371Z,6.38
2022-11-17T17:34:52.472Z,6.38
2022-11-17T17:37:57.075Z,6.39
2022-11-17T17:41:09.155Z,6.48
2022-11-17T17:44:16.248Z,6.49
2022-11-17T17:47:20.343Z,6.46
2022-11-17T17:50:24.639Z,6.47
2022-11-17T17:53:30.368Z,6.56
2022-11-17T17:56:34.736Z,6.69
2022-11-17T17:59:38.741Z,6.71
2022-11-17T18:02:42.916Z,6.62
2022-11-17T18:05:46.860Z,6.63
2022-11-17T18:08:51.108Z,6.61
2022-11-17T18:11:55.200Z,6.69
2022-11-17T18:14:59.491Z,6.59
2022-11-17T18:18:03.694Z,6.54
2022-11-17T18:21:11.019Z,6.57
2022-11-17T18:24:14.907Z,6.57
2022-11-17T18:27:18.892Z,6.49
2022-11-17T18:30:23.222Z,6.43
2022-11-17T18:33:28.825Z,6.60
2022-11-17T18:36:34.661Z,6.53
2022-11-17T18:39:38.805Z,6.61
2022-11-17T18:42:42.975Z,6.55
2022-11-17T18:45:46.855Z,6.52
2022-11-17T18:48:52.697Z,6.59
2022-11-17T18:51:57.033Z,6.45
2022-11-17T18:55:01.211Z,6.56
2022-11-17T18:58:05.374Z,6.60
2022-11-17T19:01:19.832Z,6.68
2022-11-17T19:04:23.854Z,6.64
2022-11-17T19:07:27.633Z,6.69
2022-11-17T19:10:31.624Z,6.64
2022-11-17T19:13:37.682Z,6.63
2022-11-17T19:16:45.074Z,6.72
2022-11-17T19:19:50.048Z,6.59
2022-11-17T19:22:55.052Z,6.49
2022-11-17T19:25:59.093Z,6.53
2022-11-17T19:29:15.679Z,6.56
2022-11-17T19:32:21.614Z,6.56
2022-11-17T19:35:25.652Z,6.53
2022-11-17T19:38:32.015Z,6.57
2022-11-17T19:41:39.553Z,6.45
2022-11-17T19:44:43.475Z,6.45
2022-11-17T19:47:47.283Z,6.56
2022-11-17T19:50:55.601Z,6.41
2022-11-17T19:54:05.697Z,6.46
2022-11-17T19:57:09.351Z,6.42
2022-11-17T20:00:13.836Z,6.42
2022-11-17T20:03:18.132Z,6.52
2022-11-17T20:06:27.006Z,6.53
2022-11-17T20:09:30.965Z,6.56
2022-11-17T20:12:35.347Z,6.53
2022-11-17T20:15:39.359Z,6.41
2022-11-17T20:18:44.506Z,6.44
2022-11-17T20:21:48.487Z,6.46
2022-11-17T20:24:52.543Z,6.54
2022-11-17T20:27:56.352Z,6.55
2022-11-17T20:31:06.315Z,6.52
2022-11-17T20:34:12.056Z,6.54
2022-11-17T20:37:16.003Z,6.48
2022-11-17T20:40:20.100Z,6.47
2022-11-17T20:43:25.810Z,6.43
2022-11-17T20:46:30.232Z,6.44
2022-11-17T20:49:34.102Z,6.47
2022-11-17T20:52:39.744Z,6.56
2022-11-17T20:55:43.710Z,6.47
2022-11-17T20:58:48.063Z,6.47
2022-11-17T21:01:52.374Z,6.48
2022-11-17T21:04:56.559Z,6.50
2022-11-17T21:08:00.805Z,6.44
2022-11-17T21:11:10.637Z,6.36
2022-11-17T21:14:14.600Z,6.30
2022-11-17T21:17:37.398Z,6.39
2022-11-17T21:20:41.533Z,6.49
2022-11-17T21:23:45.988Z,6.49
2022-11-17T21:26:54.514Z,6.49
2022-11-17T21:29:58.723Z,6.39
2022-11-17T21:33:02.666Z,6.41
2022-11-17T21:36:11.083Z,6.47
2022-11-17T21:39:18.464Z,6.51
2022-11-17T21:42:23.447Z,6.52
2022-11-17T21:45:29.629Z,6.54
2022-11-17T21:48:34.818Z,6.52
2022-11-17T21:51:38.885Z,6.57
2022-11-17T21:54:43.125Z,6.63
2022-11-17T21:57:50.426Z,6.65
2022-11-17T22:00:54.666Z,6.59
2022-11-17T22:03:59.181Z,6.63
2022-11-17T22:07:03.112Z,6.59
2022-11-17T22:10:07.657Z,6.65
2022-11-17T22:13:12.582Z,6.55
2022-11-17T22:16:16.604Z,6.37
2022-11-17T22:19:22.975Z,6.32
2022-11-17T22:22:27.295Z,6.19
2022-11-17T22:25:44.736Z,6.17
2022-11-17T22:28:54.824Z,6.04
2022-11-17T22:31:58.981Z,5.97
2022-11-17T22:35:03.782Z,5.93
2022-11-17T22:38:07.840Z,5.92
2022-11-17T22:41:14.032Z,5.78
2022-11-17T22:44:18.130Z,5.87
2022-11-17T22:47:22.399Z,5.80
2022-11-17T22:50:26.326Z,5.82
2022-11-17T22:53:32.699Z,5.78
2022-11-17T22:56:37.047Z,5.76
2022-11-17T22:59:41.232Z,5.75
2022-11-17T23:02:45.563Z,5.78
2022-11-17T23:05:50.260Z,5.80
2022-11-17T23:08:55.534Z,5.72
2022-11-17T23:11:59.481Z,5.74
2022-11-17T23:15:04.165Z,5.78
2022-11-17T23:18:08.314Z,5.84
2022-11-17T23:21:13.752Z,5.83
2022-11-17T23:24:17.978Z,5.90
2022-11-17T23:27:21.754Z,5.91
2022-11-17T23:30:25.563Z,5.93
2022-11-17T23:33:43.581Z,5.94
2022-11-17T23:36:47.561Z,6.01
2022-11-17T23:39:51.562Z,5.96
2022-11-17T23:42:55.766Z,5.97
2022-11-17T23:46:26.530Z,5.94
2022-11-17T23:49:30.404Z,5.95
2022-11-17T23:52:34.052Z,5.93
2022-11-17T23:55:37.933Z,6.01
2022-11-17T23:58:43.368Z,5.98
